Terminal Aerodrome Forecast
Issued by NWS Bismarck, ND

Home | Current Version | Previous Version | Text Only | Print | Product List | Glossary Off
Versions: 1 2 3 4 5 6 7 8 9 10 11 12 13 14 15 16 17

936
FTUS43 KBIS 232007 AAB
TAFBIS
TAF AMD
KBIS 232007Z 2320/2418 02015G25KT P6SM SCT050
     FM232300 02017G25KT P6SM SCT060
     FM240200 VRB06KT P6SM FEW250
     FM241400 16008KT P6SM FEW250=

USA.gov is the U.S. government's official web portal to all federal, state and local government web resources and services.